createdAt,value
2023-07-20T00:01:54.520Z,4.88
2023-07-20T00:04:21.222Z,4.07
2023-07-20T00:06:47.829Z,4.22
2023-07-20T00:09:16.759Z,3.72
2023-07-20T00:11:45.692Z,4.05
2023-07-20T00:14:12.221Z,4.45
2023-07-20T00:16:40.873Z,4.22
2023-07-20T00:19:08.183Z,4.97
2023-07-20T00:21:34.869Z,4.85
2023-07-20T00:24:01.422Z,4.10
2023-07-20T00:26:30.914Z,4.50
2023-07-20T00:28:57.458Z,4.53
2023-07-20T00:31:23.965Z,4.55
2023-07-20T00:33:50.489Z,5.00
2023-07-20T00:36:17.073Z,4.85
2023-07-20T00:38:43.668Z,4.97
2023-07-20T00:41:10.461Z,4.43
2023-07-20T00:43:37.014Z,4.80
2023-07-20T00:46:04.202Z,4.55
2023-07-20T00:48:31.184Z,4.10
2023-07-20T00:50:57.899Z,4.75
2023-07-20T00:53:24.527Z,4.80
2023-07-20T00:55:51.054Z,4.78
2023-07-20T00:58:17.597Z,5.20
2023-07-20T01:00:44.117Z,5.82
2023-07-20T01:03:10.724Z,5.30
2023-07-20T01:05:39.923Z,4.93
2023-07-20T01:08:38.914Z,5.78
2023-07-20T01:11:11.726Z,5.95
2023-07-20T01:13:38.614Z,6.05
2023-07-20T01:16:05.204Z,5.32
2023-07-20T01:18:34.087Z,5.63
2023-07-20T01:21:01.080Z,5.68
2023-07-20T01:23:27.652Z,5.47
2023-07-20T01:25:57.757Z,5.88
2023-07-20T01:28:42.785Z,5.67
2023-07-20T01:31:32.156Z,5.63
2023-07-20T01:34:01.529Z,4.95
2023-07-20T01:36:29.384Z,5.50
2023-07-20T01:38:55.948Z,6.13
2023-07-20T01:41:22.582Z,6.53
2023-07-20T01:43:49.190Z,6.90
2023-07-20T01:46:15.869Z,5.78
2023-07-20T01:48:42.543Z,6.75
2023-07-20T01:51:09.328Z,6.43
2023-07-20T01:53:35.916Z,6.28
2023-07-20T01:56:02.447Z,6.40
2023-07-20T01:58:28.999Z,5.78
2023-07-20T02:00:58.086Z,6.10
2023-07-20T02:03:26.977Z,6.60
2023-07-20T02:05:53.565Z,6.13
2023-07-20T02:08:22.434Z,6.05
2023-07-20T02:10:49.370Z,6.22
2023-07-20T02:13:15.964Z,5.88
2023-07-20T02:15:43.697Z,5.15
2023-07-20T02:18:10.550Z,5.85
2023-07-20T02:20:37.198Z,5.38
2023-07-20T02:23:03.802Z,5.35
2023-07-20T02:25:30.411Z,5.72
2023-07-20T02:27:57.836Z,5.03
2023-07-20T02:30:24.561Z,5.72
2023-07-20T02:32:51.147Z,5.53
2023-07-20T02:35:17.776Z,5.80
2023-07-20T02:37:45.133Z,5.43
2023-07-20T02:40:12.476Z,5.65
2023-07-20T02:42:39.483Z,5.10
2023-07-20T02:45:06.400Z,5.68
2023-07-20T02:47:33.127Z,6.07
2023-07-20T02:50:01.992Z,6.20
2023-07-20T02:52:31.038Z,6.15
2023-07-20T02:54:57.598Z,6.05
2023-07-20T02:57:24.188Z,6.45
2023-07-20T02:59:53.543Z,6.25
2023-07-20T03:02:21.337Z,6.25
2023-07-20T03:04:47.946Z,6.55
2023-07-20T03:07:14.508Z,6.30
2023-07-20T03:09:42.141Z,6.18
2023-07-20T03:12:09.638Z,5.75
2023-07-20T03:14:36.279Z,6.32
2023-07-20T03:17:02.976Z,6.80
2023-07-20T03:19:29.528Z,6.05
2023-07-20T03:21:56.030Z,7.47
2023-07-20T03:24:22.900Z,6.15
2023-07-20T03:26:50.288Z,6.50
2023-07-20T03:29:17.460Z,5.30
2023-07-20T03:31:49.405Z,6.03
2023-07-20T03:34:16.504Z,5.78
2023-07-20T03:36:45.522Z,6.63
2023-07-20T03:39:14.441Z,6.07
2023-07-20T03:41:41.020Z,6.97
2023-07-20T03:44:07.556Z,5.93
2023-07-20T03:46:35.381Z,6.43
2023-07-20T03:49:04.395Z,6.55
2023-07-20T03:51:33.322Z,5.90
2023-07-20T03:54:02.145Z,6.43
2023-07-20T03:56:28.847Z,5.90
2023-07-20T03:58:55.476Z,5.75
2023-07-20T04:01:22.076Z,4.78
2023-07-20T04:03:49.978Z,4.88
2023-07-20T04:06:18.651Z,4.80
2023-07-20T04:08:45.651Z,4.72
2023-07-20T04:11:12.155Z,4.75
2023-07-20T04:13:38.736Z,5.10
2023-07-20T04:16:05.492Z,5.03
2023-07-20T04:18:32.032Z,5.93
2023-07-20T04:20:58.605Z,4.70
2023-07-20T04:23:25.133Z,5.00
2023-07-20T04:25:53.112Z,4.70
2023-07-20T04:28:21.990Z,4.85
2023-07-20T04:30:50.056Z,5.28
2023-07-20T04:33:16.614Z,5.40
2023-07-20T04:35:50.027Z,5.60
2023-07-20T04:38:18.795Z,5.90
2023-07-20T04:40:48.311Z,5.93
2023-07-20T04:43:15.292Z,5.20
2023-07-20T04:45:42.013Z,5.00
2023-07-20T04:48:10.136Z,5.40
2023-07-20T04:50:36.683Z,5.28
2023-07-20T04:53:03.532Z,5.78
2023-07-20T04:55:30.039Z,4.50
2023-07-20T04:57:56.806Z,5.38
2023-07-20T05:00:23.408Z,5.45
2023-07-20T05:02:50.309Z,5.35
2023-07-20T05:05:16.915Z,5.25
2023-07-20T05:07:43.547Z,5.70
2023-07-20T05:10:10.214Z,5.13
2023-07-20T05:12:36.794Z,6.25
2023-07-20T05:15:04.266Z,5.30
2023-07-20T05:17:30.934Z,5.68
2023-07-20T05:20:00.703Z,5.35
2023-07-20T05:22:27.385Z,5.32
2023-07-20T05:24:53.964Z,5.68
2023-07-20T05:27:20.529Z,5.50
2023-07-20T05:29:47.602Z,5.50
2023-07-20T05:32:14.275Z,5.90
2023-07-20T05:34:43.225Z,5.45
2023-07-20T05:37:14.760Z,5.90
2023-07-20T05:39:41.750Z,5.50
2023-07-20T05:42:08.397Z,5.85
2023-07-20T05:44:38.606Z,6.10
2023-07-20T05:47:05.882Z,5.45
2023-07-20T05:49:32.543Z,5.20
2023-07-20T05:51:59.183Z,5.50
2023-07-20T05:54:25.768Z,5.53
2023-07-20T05:56:52.313Z,5.90
2023-07-20T05:59:18.962Z,4.97
2023-07-20T06:01:45.559Z,5.40
2023-07-20T06:04:12.151Z,4.75
2023-07-20T06:06:38.785Z,5.10
2023-07-20T06:09:06.460Z,5.30
2023-07-20T06:11:32.970Z,5.45
2023-07-20T06:14:01.898Z,5.05
2023-07-20T06:16:28.433Z,5.82
2023-07-20T06:18:55.002Z,5.10
2023-07-20T06:21:21.551Z,4.72
2023-07-20T06:23:48.217Z,5.35
2023-07-20T06:26:14.757Z,5.30
2023-07-20T06:28:41.745Z,5.03
2023-07-20T06:31:08.376Z,4.80
2023-07-20T06:33:35.905Z,5.03
2023-07-20T06:36:02.590Z,5.13
2023-07-20T06:38:32.258Z,5.22
2023-07-20T06:41:42.774Z,5.13
2023-07-20T06:46:15.386Z,4.85
2023-07-20T06:51:11.397Z,4.78
2023-07-20T06:53:38.403Z,5.30
2023-07-20T06:56:04.961Z,5.35
2023-07-20T06:58:31.526Z,4.68
2023-07-20T07:00:58.053Z,5.07
2023-07-20T07:03:28.395Z,4.97
2023-07-20T07:05:56.656Z,5.07
2023-07-20T07:08:25.687Z,5.18
2023-07-20T07:10:52.249Z,4.70
2023-07-20T07:13:18.766Z,4.80
2023-07-20T07:15:45.327Z,4.80
2023-07-20T07:18:11.898Z,4.60
2023-07-20T07:20:38.431Z,4.65
2023-07-20T07:23:05.007Z,4.63
2023-07-20T07:25:33.391Z,5.30
2023-07-20T07:28:00.371Z,5.25
2023-07-20T07:30:27.015Z,4.90
2023-07-20T07:32:53.610Z,5.60
2023-07-20T07:35:20.133Z,5.63
2023-07-20T07:38:03.357Z,5.40
2023-07-20T07:40:34.375Z,5.30
2023-07-20T07:43:00.907Z,5.00
2023-07-20T07:45:27.431Z,5.10
2023-07-20T07:47:56.306Z,5.80
2023-07-20T07:50:25.342Z,5.70
2023-07-20T07:52:51.995Z,5.88
2023-07-20T07:55:19.077Z,5.40
2023-07-20T07:57:45.742Z,5.60
2023-07-20T08:00:15.741Z,5.25
2023-07-20T08:02:43.448Z,5.30
2023-07-20T08:05:10.319Z,4.80
2023-07-20T08:07:37.541Z,5.72
2023-07-20T08:10:04.976Z,5.10
2023-07-20T08:12:31.711Z,5.60
2023-07-20T08:14:58.307Z,5.80
2023-07-20T08:17:24.916Z,5.20
2023-07-20T08:19:51.656Z,5.70
2023-07-20T08:22:18.158Z,5.15
2023-07-20T08:24:44.805Z,5.45
2023-07-20T08:27:11.525Z,5.53
2023-07-20T08:29:38.739Z,5.53
2023-07-20T08:32:05.830Z,6.03
2023-07-20T08:34:32.519Z,5.05
2023-07-20T08:36:59.480Z,5.55
2023-07-20T08:39:28.440Z,5.65
2023-07-20T08:41:55.362Z,5.70
2023-07-20T08:44:22.048Z,5.15
2023-07-20T08:46:48.659Z,5.45
2023-07-20T08:49:15.339Z,5.47
2023-07-20T08:51:42.124Z,6.03
2023-07-20T08:54:09.254Z,5.63
2023-07-20T08:56:35.821Z,5.97
2023-07-20T08:59:02.410Z,5.22
2023-07-20T09:01:29.601Z,4.93
2023-07-20T09:03:56.201Z,4.78
2023-07-20T09:06:22.981Z,5.20
2023-07-20T09:08:49.737Z,4.80
2023-07-20T09:11:18.624Z,4.90
2023-07-20T09:13:45.213Z,4.72
2023-07-20T09:16:14.565Z,4.80
2023-07-20T09:18:42.952Z,4.72
2023-07-20T09:21:09.680Z,5.38
2023-07-20T09:23:36.795Z,4.93
2023-07-20T09:26:15.196Z,4.60
2023-07-20T09:28:47.992Z,4.80
2023-07-20T09:31:18.755Z,4.97
2023-07-20T09:36:57.377Z,4.95
2023-07-20T09:41:46.014Z,4.95
2023-07-20T09:51:43.514Z,4.40
2023-07-20T09:54:10.193Z,4.68
2023-07-20T09:56:36.807Z,5.18
2023-07-20T09:59:03.395Z,4.65
2023-07-20T10:01:32.689Z,4.05
2023-07-20T10:03:59.721Z,4.32
2023-07-20T10:06:26.390Z,4.50
2023-07-20T10:08:53.776Z,4.40
2023-07-20T10:11:20.286Z,4.60
2023-07-20T10:13:46.788Z,4.65
2023-07-20T10:16:14.545Z,4.00
2023-07-20T10:19:00.684Z,4.07
2023-07-20T10:23:59.657Z,4.28
2023-07-20T10:26:27.480Z,4.00
2023-07-20T10:28:54.628Z,4.15
2023-07-20T10:31:21.210Z,4.70
2023-07-20T10:33:47.680Z,4.30
2023-07-20T10:36:14.225Z,4.93
2023-07-20T10:38:43.909Z,3.92
2023-07-20T10:41:29.304Z,4.57
2023-07-20T10:44:05.783Z,4.57
2023-07-20T10:46:36.610Z,4.55
2023-07-20T10:49:04.095Z,4.53
2023-07-20T10:51:30.791Z,4.38
2023-07-20T10:53:59.506Z,4.18
2023-07-20T10:56:31.848Z,4.60
2023-07-20T10:58:59.191Z,4.75
2023-07-20T11:01:28.669Z,4.50
2023-07-20T11:03:58.002Z,4.50
2023-07-20T11:06:27.386Z,4.32
2023-07-20T11:08:57.526Z,4.70
2023-07-20T11:11:25.090Z,4.80
2023-07-20T11:13:55.647Z,4.72
2023-07-20T11:16:22.219Z,4.68
2023-07-20T11:18:49.209Z,4.85
2023-07-20T11:21:17.004Z,4.93
2023-07-20T11:23:43.633Z,4.35
2023-07-20T11:26:11.228Z,4.75
2023-07-20T11:28:38.270Z,4.45
2023-07-20T11:31:04.823Z,5.15
2023-07-20T11:33:31.333Z,4.60
2023-07-20T11:35:58.278Z,5.05
2023-07-20T11:38:25.236Z,5.13
2023-07-20T11:40:52.567Z,4.70
2023-07-20T11:43:20.665Z,5.00
2023-07-20T11:45:47.318Z,5.18
2023-07-20T11:48:17.589Z,4.60
2023-07-20T11:50:44.257Z,4.75
2023-07-20T11:53:10.864Z,5.18
2023-07-20T11:55:37.456Z,5.05
2023-07-20T11:58:04.540Z,5.20
2023-07-20T12:00:31.133Z,4.50
2023-07-20T12:02:57.666Z,4.72
2023-07-20T12:05:24.413Z,5.10
2023-07-20T12:07:52.246Z,4.70
2023-07-20T12:10:24.472Z,5.15
2023-07-20T12:12:50.995Z,5.35
2023-07-20T12:15:17.806Z,4.88
2023-07-20T12:17:47.917Z,4.80
2023-07-20T12:20:15.305Z,4.67
2023-07-20T12:22:42.503Z,5.30
2023-07-20T12:25:09.556Z,5.30
2023-07-20T12:27:39.519Z,4.97
2023-07-20T12:30:07.013Z,4.97
2023-07-20T12:32:34.110Z,5.03
2023-07-20T12:35:01.704Z,5.05
2023-07-20T12:37:28.384Z,5.35
2023-07-20T12:39:54.936Z,5.05
2023-07-20T12:42:21.484Z,4.75
2023-07-20T12:44:48.597Z,5.22
2023-07-20T12:47:15.181Z,5.18
2023-07-20T12:49:46.387Z,4.90
2023-07-20T12:52:13.086Z,4.82
2023-07-20T12:54:39.649Z,5.10
2023-07-20T12:59:35.949Z,5.45
2023-07-20T13:02:02.551Z,4.97
2023-07-20T13:04:29.191Z,4.88
2023-07-20T13:06:55.931Z,5.03
2023-07-20T13:09:24.835Z,5.15
2023-07-20T13:11:53.745Z,4.78
2023-07-20T13:14:20.334Z,5.30
2023-07-20T13:16:47.087Z,4.43
2023-07-20T13:19:13.729Z,4.88
2023-07-20T13:21:40.220Z,5.10
2023-07-20T13:24:06.995Z,4.70
2023-07-20T13:26:35.054Z,4.60
2023-07-20T13:29:01.721Z,4.80
2023-07-20T13:31:33.084Z,4.70
2023-07-20T13:34:01.254Z,4.57
2023-07-20T13:36:30.411Z,4.93
2023-07-20T13:38:57.268Z,5.03
2023-07-20T13:41:24.756Z,4.60
2023-07-20T13:43:57.771Z,4.70
2023-07-20T13:48:56.065Z,4.78
2023-07-20T13:51:27.825Z,4.70
2023-07-20T13:53:57.343Z,5.07
2023-07-20T13:56:24.635Z,4.88
2023-07-20T13:58:51.853Z,5.05
2023-07-20T14:03:54.123Z,4.93
2023-07-20T14:06:23.390Z,5.32
2023-07-20T14:08:51.590Z,5.70
2023-07-20T14:13:48.198Z,5.28
2023-07-20T14:16:14.923Z,5.07
2023-07-20T14:18:42.146Z,5.13
2023-07-20T14:21:09.562Z,4.68
2023-07-20T14:23:37.506Z,4.90
2023-07-20T14:26:07.124Z,4.95
2023-07-20T14:28:37.048Z,4.47
2023-07-20T14:31:03.624Z,4.63
2023-07-20T14:33:30.315Z,5.00
2023-07-20T14:35:59.558Z,4.55
2023-07-20T14:38:26.159Z,4.80
2023-07-20T14:40:53.647Z,4.45
2023-07-20T14:43:20.279Z,4.63
2023-07-20T14:45:46.823Z,4.80
2023-07-20T14:48:13.467Z,4.53
2023-07-20T14:50:40.286Z,4.20
2023-07-20T14:53:07.115Z,4.32
2023-07-20T14:55:33.670Z,4.55
2023-07-20T14:58:00.213Z,4.18
2023-07-20T15:00:26.881Z,4.57
2023-07-20T15:02:57.280Z,4.63
2023-07-20T15:05:24.316Z,4.28
2023-07-20T15:07:50.988Z,4.35
2023-07-20T15:10:17.544Z,4.63
2023-07-20T15:12:44.142Z,4.18
2023-07-20T15:15:11.393Z,4.32
2023-07-20T15:17:38.577Z,4.68
2023-07-20T15:20:08.567Z,4.22
2023-07-20T15:22:35.625Z,4.65
2023-07-20T15:25:03.288Z,3.97
2023-07-20T15:27:30.824Z,4.10
2023-07-20T15:29:57.364Z,4.53
2023-07-20T15:32:23.950Z,4.28
2023-07-20T15:34:52.841Z,4.00
2023-07-20T15:37:19.390Z,4.38
2023-07-20T15:39:49.134Z,4.30
2023-07-20T15:42:15.697Z,4.20
2023-07-20T15:44:42.186Z,4.30
2023-07-20T15:47:11.107Z,4.00
2023-07-20T15:49:38.012Z,4.15
2023-07-20T15:52:05.015Z,4.03
2023-07-20T15:54:31.581Z,4.47
2023-07-20T15:56:58.120Z,5.15
2023-07-20T15:59:24.676Z,4.10
2023-07-20T16:01:51.266Z,4.05
2023-07-20T16:04:17.823Z,3.97
2023-07-20T16:06:44.327Z,4.10
2023-07-20T16:09:10.837Z,4.22
2023-07-20T16:11:38.183Z,4.90
2023-07-20T16:14:06.616Z,4.75
2023-07-20T16:16:34.547Z,4.15
2023-07-20T16:19:01.189Z,3.92
2023-07-20T16:21:28.024Z,4.10
2023-07-20T16:23:54.694Z,4.18
2023-07-20T16:26:22.080Z,3.92
2023-07-20T16:28:48.686Z,4.22
2023-07-20T16:31:15.468Z,3.95
2023-07-20T16:36:16.021Z,4.17
2023-07-20T16:38:44.282Z,4.00
2023-07-20T16:41:11.171Z,4.07
2023-07-20T16:48:55.958Z,3.72
2023-07-20T16:51:23.232Z,3.90
2023-07-20T16:53:50.001Z,3.70
2023-07-20T16:56:18.911Z,3.60
2023-07-20T16:58:45.471Z,3.33
2023-07-20T17:01:12.029Z,4.10
2023-07-20T17:03:38.710Z,4.05
2023-07-20T17:06:06.761Z,4.10
2023-07-20T17:08:33.285Z,4.35
2023-07-20T17:11:03.677Z,4.05
2023-07-20T17:13:31.138Z,4.28
2023-07-20T17:15:57.838Z,4.47
2023-07-20T17:18:24.405Z,4.18
2023-07-20T17:20:52.874Z,4.15
2023-07-20T17:24:01.323Z,4.25
2023-07-20T17:31:05.377Z,3.90
2023-07-20T17:33:31.944Z,3.97
2023-07-20T17:40:57.633Z,4.10
2023-07-20T17:43:24.227Z,3.90
2023-07-20T17:45:51.469Z,3.83
2023-07-20T17:48:18.979Z,4.25
2023-07-20T17:50:45.714Z,4.40
2023-07-20T17:53:12.440Z,3.83
2023-07-20T17:55:38.991Z,4.10
2023-07-20T17:58:05.524Z,4.00
2023-07-20T18:03:02.136Z,4.18
2023-07-20T18:05:28.754Z,4.40
2023-07-20T18:07:55.292Z,3.90
2023-07-20T18:10:21.839Z,5.03
2023-07-20T18:12:48.586Z,4.97
2023-07-20T18:15:15.252Z,4.40
2023-07-20T18:17:41.928Z,4.53
2023-07-20T18:20:10.525Z,4.50
2023-07-20T18:22:37.133Z,4.70
2023-07-20T18:25:05.922Z,4.47
2023-07-20T18:27:33.204Z,5.03
2023-07-20T18:30:00.377Z,4.45
2023-07-20T18:32:27.267Z,4.70
2023-07-20T18:34:54.070Z,4.28
2023-07-20T18:37:21.657Z,4.40
2023-07-20T18:39:48.312Z,4.50
2023-07-20T18:42:14.961Z,4.65
2023-07-20T18:44:41.573Z,4.40
2023-07-20T18:47:10.490Z,4.40
2023-07-20T18:49:37.277Z,4.70
2023-07-20T18:52:05.174Z,4.15
2023-07-20T18:54:32.024Z,4.65
2023-07-20T18:56:59.007Z,4.43
2023-07-20T18:59:25.548Z,3.70
2023-07-20T19:01:52.267Z,3.85
2023-07-20T19:04:18.929Z,4.35
2023-07-20T19:06:45.520Z,3.92
2023-07-20T19:09:12.030Z,4.00
2023-07-20T19:14:08.755Z,4.30
2023-07-20T19:16:35.518Z,4.15
2023-07-20T19:19:02.082Z,4.15
2023-07-20T19:21:30.927Z,3.88
2023-07-20T19:23:57.432Z,4.32
2023-07-20T19:26:24.664Z,4.22
2023-07-20T19:28:51.302Z,4.47
2023-07-20T19:31:18.013Z,4.45
2023-07-20T19:33:44.567Z,4.30
2023-07-20T19:36:11.212Z,4.90
2023-07-20T19:38:37.936Z,3.97
2023-07-20T19:41:06.597Z,4.43
2023-07-20T19:43:33.519Z,4.80
2023-07-20T19:46:00.151Z,4.13
2023-07-20T19:48:26.729Z,4.57
2023-07-20T19:50:53.408Z,4.50
2023-07-20T19:55:49.859Z,4.60
2023-07-20T19:58:16.414Z,4.55
2023-07-20T20:05:43.317Z,5.13
2023-07-20T20:08:09.981Z,4.90
2023-07-20T20:13:08.383Z,4.38
2023-07-20T20:15:34.992Z,4.75
2023-07-20T20:18:04.533Z,4.78
2023-07-20T20:20:34.153Z,4.97
2023-07-20T20:23:00.799Z,5.05
2023-07-20T20:25:27.573Z,5.28
2023-07-20T20:27:55.284Z,6.60
2023-07-20T20:30:25.057Z,6.45
2023-07-20T20:32:51.977Z,5.60
2023-07-20T20:35:20.959Z,6.90
2023-07-20T20:37:47.536Z,6.03
2023-07-20T20:40:14.990Z,6.65
2023-07-20T20:42:41.687Z,6.15
2023-07-20T20:45:11.745Z,6.32
2023-07-20T20:47:39.687Z,6.80
2023-07-20T20:50:07.223Z,6.82
2023-07-20T20:52:36.966Z,5.75
2023-07-20T20:55:06.745Z,6.68
2023-07-20T20:57:33.294Z,7.10
2023-07-20T21:00:00.031Z,7.05
2023-07-20T21:02:26.617Z,7.10
2023-07-20T21:04:53.332Z,6.85
2023-07-20T21:07:20.102Z,6.70
2023-07-20T21:09:46.688Z,6.28
2023-07-20T21:12:13.302Z,6.50
2023-07-20T21:14:40.523Z,6.40
2023-07-20T21:17:07.114Z,6.22
2023-07-20T21:19:33.637Z,6.72
2023-07-20T21:22:00.154Z,6.00
2023-07-20T21:24:29.067Z,5.57
2023-07-20T21:26:57.793Z,6.35
2023-07-20T21:29:24.394Z,6.85
2023-07-20T21:31:50.942Z,6.55
2023-07-20T21:34:17.446Z,7.00
2023-07-20T21:36:44.412Z,6.30
2023-07-20T21:39:14.040Z,6.85
2023-07-20T21:41:40.776Z,6.72
2023-07-20T21:44:07.570Z,7.32
2023-07-20T21:46:34.826Z,8.43
2023-07-20T21:49:01.428Z,7.30
2023-07-20T21:51:30.352Z,6.88
2023-07-20T21:53:57.011Z,6.20
2023-07-20T21:56:23.872Z,6.53
2023-07-20T21:58:50.550Z,6.40
2023-07-20T22:01:44.185Z,7.07
2023-07-20T22:04:06.769Z,6.82
2023-07-20T22:06:33.489Z,6.55
2023-07-20T22:09:00.038Z,6.68
2023-07-20T22:11:26.634Z,5.82
2023-07-20T22:13:55.520Z,6.82
2023-07-20T22:16:22.179Z,6.35
2023-07-20T22:18:51.076Z,6.90
2023-07-20T22:21:17.877Z,6.65
2023-07-20T22:23:44.940Z,7.30
2023-07-20T22:26:11.572Z,6.22
2023-07-20T22:28:38.590Z,6.13
2023-07-20T22:31:05.126Z,6.40
2023-07-20T22:33:31.640Z,6.63
2023-07-20T22:35:58.168Z,6.47
2023-07-20T22:38:25.500Z,6.07
2023-07-20T22:40:52.203Z,6.47
2023-07-20T22:43:21.698Z,6.38
2023-07-20T22:45:50.258Z,6.25
2023-07-20T22:48:17.185Z,6.43
2023-07-20T22:50:46.068Z,6.80
2023-07-20T22:53:12.564Z,6.55
2023-07-20T22:55:39.039Z,6.10
2023-07-20T22:58:05.608Z,6.30
2023-07-20T23:00:32.504Z,6.60
2023-07-20T23:02:59.308Z,5.82
2023-07-20T23:05:26.039Z,7.10
2023-07-20T23:07:55.581Z,7.00
2023-07-20T23:10:22.784Z,6.45
2023-07-20T23:12:49.305Z,6.13
2023-07-20T23:15:15.891Z,6.72
2023-07-20T23:17:42.774Z,6.45
2023-07-20T23:20:26.642Z,6.75
2023-07-20T23:22:53.217Z,6.97
2023-07-20T23:25:20.268Z,6.47
2023-07-20T23:27:46.809Z,7.03
2023-07-20T23:30:14.046Z,6.90
2023-07-20T23:32:41.082Z,6.63
2023-07-20T23:35:08.522Z,6.65
2023-07-20T23:37:35.092Z,7.57
2023-07-20T23:40:01.634Z,6.90
2023-07-20T23:42:28.320Z,6.90
2023-07-20T23:44:54.915Z,6.90
2023-07-20T23:47:21.519Z,6.78
2023-07-20T23:49:49.180Z,6.78
2023-07-20T23:52:19.733Z,6.55
2023-07-20T23:54:49.360Z,6.55
2023-07-20T23:57:16.024Z,6.30
2023-07-20T23:59:42.561Z,6.95
